createdAt,value
2023-03-30T00:01:50.401Z,1.60
2023-03-30T00:06:49.925Z,2.35
2023-03-30T00:11:50.421Z,2.58
2023-03-30T00:16:49.964Z,3.13
2023-03-30T00:21:49.700Z,2.80
2023-03-30T00:26:50.788Z,3.03
2023-03-30T00:31:53.356Z,3.40
2023-03-30T00:36:54.514Z,2.85
2023-03-30T00:41:55.080Z,3.70
2023-03-30T00:46:55.798Z,3.80
2023-03-30T00:51:56.142Z,3.70
2023-03-30T00:56:55.847Z,3.60
2023-03-30T01:01:59.505Z,3.45
2023-03-30T01:07:01.804Z,3.05
2023-03-30T01:12:02.288Z,3.38
2023-03-30T01:17:22.734Z,2.50
2023-03-30T01:22:50.443Z,2.92
2023-03-30T01:28:07.994Z,2.75
2023-03-30T01:33:11.784Z,3.60
2023-03-30T01:38:42.426Z,4.35
2023-03-30T01:43:51.486Z,3.08
2023-03-30T01:49:01.229Z,3.10
2023-03-30T01:54:13.419Z,3.92
2023-03-30T01:59:22.441Z,3.65
2023-03-30T02:04:25.518Z,3.90
2023-03-30T02:09:29.846Z,3.78
2023-03-30T02:14:30.686Z,3.60
2023-03-30T02:19:30.197Z,4.13
2023-03-30T02:24:30.765Z,3.45
2023-03-30T02:29:29.190Z,3.75
2023-03-30T02:34:37.707Z,4.30
2023-03-30T02:40:12.693Z,3.85
2023-03-30T02:45:35.059Z,3.72
2023-03-30T02:51:03.113Z,3.88
2023-03-30T02:56:54.929Z,3.53
2023-03-30T03:01:59.988Z,4.00
2023-03-30T03:06:59.182Z,4.53
2023-03-30T03:12:01.468Z,4.05
2023-03-30T03:17:06.737Z,3.92
2023-03-30T03:22:10.318Z,3.90
2023-03-30T03:27:09.162Z,3.53
2023-03-30T03:32:25.722Z,3.95
2023-03-30T03:37:28.710Z,4.15
2023-03-30T03:42:27.557Z,4.82
2023-03-30T03:47:39.899Z,4.22
2023-03-30T03:52:43.769Z,4.45
2023-03-30T04:02:44.864Z,4.38
2023-03-30T04:07:49.350Z,5.07
2023-03-30T04:18:06.901Z,5.47
2023-03-30T04:23:31.755Z,5.05
2023-03-30T04:29:00.815Z,5.82
2023-03-30T04:34:39.879Z,5.45
2023-03-30T04:40:02.462Z,6.68
2023-03-30T04:45:22.295Z,6.70
2023-03-30T04:50:38.248Z,7.40
2023-03-30T04:55:54.593Z,8.23
2023-03-30T05:01:06.930Z,9.23
2023-03-30T05:06:37.226Z,8.82
2023-03-30T05:11:56.863Z,8.75
2023-03-30T05:17:08.550Z,8.00
2023-03-30T05:22:27.200Z,8.18
2023-03-30T05:27:40.203Z,7.40
2023-03-30T05:32:57.046Z,6.88
2023-03-30T05:38:12.726Z,9.40
2023-03-30T05:43:30.039Z,8.35
2023-03-30T05:48:34.797Z,7.88
2023-03-30T05:53:52.587Z,7.95
2023-03-30T05:59:24.676Z,4.97
2023-03-30T06:04:31.731Z,6.28
2023-03-30T06:09:32.115Z,6.43
2023-03-30T06:14:36.458Z,5.63
2023-03-30T06:19:54.580Z,3.90
2023-03-30T06:24:55.600Z,3.83
2023-03-30T06:29:57.231Z,3.35
2023-03-30T06:34:56.469Z,3.10
2023-03-30T06:39:57.786Z,4.43
2023-03-30T06:44:57.348Z,4.05
2023-03-30T06:49:55.432Z,3.30
2023-03-30T06:55:28.824Z,3.35
2023-03-30T07:00:29.053Z,4.47
2023-03-30T07:05:50.584Z,4.60
2023-03-30T07:10:59.671Z,5.32
2023-03-30T07:16:04.457Z,4.00
2023-03-30T07:21:06.641Z,4.20
2023-03-30T07:26:17.531Z,4.20
2023-03-30T07:31:29.903Z,4.50
2023-03-30T07:36:28.966Z,3.88
2023-03-30T07:41:27.623Z,5.50
2023-03-30T07:46:32.916Z,4.45
2023-03-30T07:51:35.620Z,4.45
2023-03-30T07:56:53.996Z,4.78
2023-03-30T08:01:55.059Z,5.50
2023-03-30T08:07:19.373Z,3.97
2023-03-30T08:12:21.501Z,4.55
2023-03-30T08:17:21.356Z,4.03
2023-03-30T08:22:21.233Z,3.70
2023-03-30T08:27:23.099Z,4.18
2023-03-30T08:32:23.942Z,2.58
2023-03-30T08:37:25.316Z,2.33
2023-03-30T08:42:46.843Z,2.53
2023-03-30T08:47:49.162Z,1.63
2023-03-30T08:52:46.838Z,1.98
2023-03-30T08:57:52.234Z,1.80
2023-03-30T09:02:56.007Z,1.95
2023-03-30T09:08:07.184Z,1.70
2023-03-30T09:13:06.076Z,1.77
2023-03-30T09:18:15.169Z,1.40
2023-03-30T09:23:17.788Z,1.48
2023-03-30T09:28:24.043Z,1.50
2023-03-30T09:33:32.870Z,1.60
2023-03-30T09:38:33.025Z,1.60
2023-03-30T09:43:37.572Z,1.25
2023-03-30T09:48:42.955Z,1.52
2023-03-30T09:53:43.411Z,1.65
2023-03-30T09:58:42.416Z,1.80
2023-03-30T10:03:42.040Z,1.70
2023-03-30T10:08:51.338Z,2.60
2023-03-30T10:13:53.497Z,1.90
2023-03-30T10:19:38.199Z,1.80
2023-03-30T10:24:50.623Z,1.77
2023-03-30T10:29:50.933Z,1.67
2023-03-30T10:34:54.423Z,2.28
2023-03-30T10:39:52.915Z,2.05
2023-03-30T10:45:03.753Z,1.95
2023-03-30T10:50:03.174Z,2.00
2023-03-30T10:55:16.349Z,1.70
2023-03-30T11:00:46.410Z,1.97
2023-03-30T11:05:49.861Z,1.90
2023-03-30T11:10:50.558Z,1.50
2023-03-30T11:15:54.223Z,1.98
2023-03-30T11:21:02.504Z,1.80
2023-03-30T11:26:05.935Z,3.05
2023-03-30T11:31:19.166Z,2.20
2023-03-30T11:36:45.388Z,1.80
2023-03-30T11:41:48.365Z,2.10
2023-03-30T11:46:55.753Z,1.75
2023-03-30T11:52:05.643Z,1.98
2023-03-30T11:57:32.289Z,1.70
2023-03-30T12:02:38.963Z,1.98
2023-03-30T12:07:53.470Z,2.33
2023-03-30T12:12:55.955Z,2.08
2023-03-30T12:18:04.160Z,1.77
2023-03-30T12:23:04.922Z,1.60
2023-03-30T12:28:20.718Z,1.80
2023-03-30T12:33:29.943Z,1.52
2023-03-30T12:38:50.256Z,1.67
2023-03-30T12:44:16.245Z,1.67
2023-03-30T12:49:24.378Z,1.67
2023-03-30T12:55:04.078Z,1.50
2023-03-30T13:00:12.514Z,1.63
2023-03-30T13:05:20.168Z,1.38
2023-03-30T13:10:31.074Z,1.38
2023-03-30T13:15:58.809Z,2.00
2023-03-30T13:20:56.643Z,1.58
2023-03-30T13:26:34.543Z,1.10
2023-03-30T13:31:35.671Z,1.38
2023-03-30T13:36:39.224Z,1.52
2023-03-30T13:41:43.519Z,1.60
2023-03-30T13:47:11.547Z,1.83
2023-03-30T13:52:21.697Z,1.73
2023-03-30T13:57:33.710Z,2.00
2023-03-30T14:02:33.239Z,1.70
2023-03-30T14:07:47.196Z,1.65
2023-03-30T14:17:50.510Z,1.88
2023-03-30T14:22:53.506Z,2.33
2023-03-30T14:27:51.289Z,1.97
2023-03-30T14:33:07.573Z,2.08
2023-03-30T14:38:16.260Z,1.95
2023-03-30T14:43:26.189Z,1.48
2023-03-30T14:48:36.525Z,1.05
2023-03-30T14:53:36.903Z,1.17
2023-03-30T14:58:35.943Z,1.17
2023-03-30T15:03:37.612Z,1.73
2023-03-30T15:08:42.251Z,0.88
2023-03-30T15:13:57.929Z,1.52
2023-03-30T15:19:04.762Z,1.55
2023-03-30T15:24:09.955Z,1.10
2023-03-30T15:29:07.989Z,0.93
2023-03-30T15:34:06.898Z,1.23
2023-03-30T15:39:20.480Z,1.27
2023-03-30T15:44:24.361Z,1.92
2023-03-30T15:54:36.884Z,2.10
2023-03-30T15:59:41.467Z,9.18
2023-03-30T16:04:39.947Z,6.32
2023-03-30T16:09:41.516Z,3.15
2023-03-30T16:15:10.321Z,2.10
2023-03-30T16:20:22.203Z,1.60
2023-03-30T16:25:26.024Z,2.00
2023-03-30T16:30:40.118Z,1.88
2023-03-30T16:35:38.703Z,1.73
2023-03-30T16:40:45.392Z,1.33
2023-03-30T16:45:43.948Z,1.80
2023-03-30T16:50:47.517Z,1.77
2023-03-30T16:55:51.134Z,2.03
2023-03-30T17:00:51.444Z,1.98
2023-03-30T17:05:58.301Z,2.80
2023-03-30T17:10:58.521Z,2.78
2023-03-30T17:16:00.129Z,3.22
2023-03-30T17:21:01.711Z,3.20
2023-03-30T17:26:01.136Z,6.40
2023-03-30T17:31:03.842Z,11.65
2023-03-30T17:36:05.538Z,13.80
2023-03-30T17:41:10.613Z,17.92
2023-03-30T17:46:13.342Z,21.00
2023-03-30T17:51:12.349Z,27.90
2023-03-30T17:56:12.888Z,29.27
2023-03-30T18:01:13.041Z,31.58
2023-03-30T18:06:14.883Z,40.80
2023-03-30T18:11:15.120Z,40.80
2023-03-30T18:16:18.084Z,38.78
2023-03-30T18:21:16.504Z,40.47
2023-03-30T18:26:15.619Z,39.05
2023-03-30T18:31:17.025Z,31.15
2023-03-30T18:36:17.468Z,34.22
2023-03-30T18:41:30.165Z,41.90
2023-03-30T18:46:30.053Z,39.67
2023-03-30T18:51:34.410Z,35.17
2023-03-30T18:56:36.041Z,26.88
2023-03-30T19:01:40.483Z,31.70
2023-03-30T19:06:46.053Z,25.40
2023-03-30T19:11:48.456Z,23.23
2023-03-30T19:16:50.693Z,25.10
2023-03-30T19:22:45.379Z,23.85
2023-03-30T19:28:12.535Z,25.73
2023-03-30T19:33:16.997Z,25.92
2023-03-30T19:38:18.502Z,26.30
2023-03-30T19:43:24.266Z,28.85
2023-03-30T19:48:29.156Z,27.48
2023-03-30T19:53:28.325Z,25.10
2023-03-30T19:58:26.673Z,21.25
2023-03-30T20:03:31.040Z,19.17
2023-03-30T20:08:29.617Z,20.27
2023-03-30T20:13:27.683Z,18.73
2023-03-30T20:18:31.258Z,18.35
2023-03-30T20:23:29.200Z,19.17
2023-03-30T20:28:27.301Z,14.90
2023-03-30T20:33:27.542Z,15.00
2023-03-30T20:38:27.672Z,14.27
2023-03-30T20:43:26.336Z,14.73
2023-03-30T20:48:28.614Z,13.52
2023-03-30T20:53:29.752Z,10.35
2023-03-30T20:58:32.869Z,8.05
2023-03-30T21:03:44.725Z,7.03
2023-03-30T21:08:46.015Z,5.63
2023-03-30T21:13:45.064Z,6.35
2023-03-30T21:18:43.916Z,4.20
2023-03-30T21:23:44.381Z,5.30
2023-03-30T21:28:42.875Z,4.40
2023-03-30T21:33:47.903Z,4.05
2023-03-30T21:38:46.586Z,4.22
2023-03-30T21:43:47.483Z,4.47
2023-03-30T21:48:46.513Z,3.30
2023-03-30T21:53:48.695Z,3.58
2023-03-30T21:58:47.249Z,3.00
2023-03-30T22:03:46.375Z,3.47
2023-03-30T22:08:49.387Z,4.00
2023-03-30T22:13:48.956Z,6.47
2023-03-30T22:18:47.621Z,7.97
2023-03-30T22:23:51.159Z,9.05
2023-03-30T22:28:52.365Z,8.85
2023-03-30T22:33:53.113Z,8.52
2023-03-30T22:38:52.554Z,5.47
2023-03-30T22:43:52.293Z,4.57
2023-03-30T22:48:53.570Z,3.80
2023-03-30T22:53:56.096Z,2.95
2023-03-30T22:58:54.481Z,3.08
2023-03-30T23:03:53.589Z,3.25
2023-03-30T23:08:54.822Z,3.22
2023-03-30T23:13:54.168Z,3.20
2023-03-30T23:18:53.727Z,3.70
2023-03-30T23:23:54.980Z,3.30
2023-03-30T23:28:53.204Z,3.30
2023-03-30T23:33:55.425Z,3.83
2023-03-30T23:38:57.061Z,3.83
2023-03-30T23:43:57.921Z,3.03
2023-03-30T23:48:57.780Z,2.33
2023-03-30T23:54:00.384Z,1.95
2023-03-30T23:59:04.517Z,1.70
